Time;durP1;ratioP1;P1;durP2;ratioP2;P2;SDS_P1;SDS_P2;PMS_P1;PMS_P2;Temp;Humidity;BMP_temperature;BMP_pressure;BME280_temperature;BME280_humidity;BME280_pressure;Samples;Min_cycle;Max_cycle;Signal;HPM_P1;HPM_P2
2021/12/08 00:02:26;;;;;;;6.90;1.52;;;;;;;6.28;93.17;98492.09;8354998;28;20063;-63
2021/12/08 00:06:27;;;;;;;4.93;1.70;;;;;;;6.19;95.52;98496.59;8356594;28;20052;-63
2021/12/08 00:14:40;;;;;;;3.95;1.48;;;;;;;6.35;98.05;98488.59;8393607;27;20487;-63
2021/12/08 00:18:47;;;;;;;2.58;1.38;;;;;;;6.57;97.08;98493.34;8343784;28;20163;-63
2021/12/08 00:22:48;;;;;;;2.17;1.40;;;;;;;6.61;96.46;98465.16;8352394;28;20079;-63
2021/12/08 00:26:48;;;;;;;2.50;1.50;;;;;;;6.77;95.84;98467.03;8351884;28;20033;-63
2021/12/08 00:30:51;;;;;;;4.07;1.55;;;;;;;6.80;95.66;98483.63;8357583;28;20029;-63
2021/12/08 00:34:52;;;;;;;4.90;1.58;;;;;;;6.94;95.96;98474.06;8382783;28;20032;-63
2021/12/08 00:38:53;;;;;;;1.98;1.10;;;;;;;7.03;94.80;98492.72;8368527;28;20559;-63
2021/12/08 00:42:54;;;;;;;2.35;0.88;;;;;;;7.09;94.52;98478.63;8354519;28;20489;-63
2021/12/08 00:46:54;;;;;;;2.45;0.90;;;;;;;7.07;94.69;98469.88;8351088;28;20152;-63
2021/12/08 00:50:55;;;;;;;2.10;0.93;;;;;;;7.17;94.28;98480.47;8350951;28;20044;-63
2021/12/08 00:54:56;;;;;;;2.45;0.93;;;;;;;7.20;93.60;98462.13;8351116;28;20520;-61
2021/12/08 00:58:57;;;;;;;3.13;0.90;;;;;;;7.17;93.73;98475.91;8351848;28;20524;-61
2021/12/08 01:02:58;;;;;;;3.10;0.70;;;;;;;7.12;94.08;98448.72;8367241;28;20045;-61
2021/12/08 01:07:00;;;;;;;2.10;0.85;;;;;;;7.24;93.90;98482.31;8380004;28;20043;-61
2021/12/08 01:11:06;;;;;;;1.88;0.65;;;;;;;7.30;94.17;98491.53;8376323;28;20041;-61
2021/12/08 01:15:07;;;;;;;1.25;0.68;;;;;;;7.36;93.29;98480.94;8373275;28;20052;-61
2021/12/08 01:19:08;;;;;;;2.70;0.60;;;;;;;7.32;93.14;98474.22;8361911;28;20053;-61
2021/12/08 01:23:08;;;;;;;2.53;0.43;;;;;;;7.28;93.97;98480.94;8360404;28;20095;-61
2021/12/08 01:27:09;;;;;;;0.98;0.52;;;;;;;7.35;93.73;98478.44;8333842;28;20048;-62
2021/12/08 01:31:10;;;;;;;1.70;0.50;;;;;;;7.37;93.38;98471.03;8349497;28;20025;-61
2021/12/08 01:35:11;;;;;;;0.88;0.47;;;;;;;7.44;93.46;98467.47;8331691;28;20111;-62
2021/12/08 01:39:11;;;;;;;1.05;0.60;;;;;;;7.34;94.05;98488.34;8330597;28;20049;-62
2021/12/08 01:43:24;;;;;;;1.33;0.43;;;;;;;7.38;94.28;98503.09;8330713;28;20033;-62
2021/12/08 01:47:26;;;;;;;2.65;0.43;;;;;;;7.36;94.56;98505.13;8338332;28;20412;-62
2021/12/08 01:51:27;;;;;;;1.80;0.60;;;;;;;7.39;94.94;98512.00;8341413;28;20038;-62
2021/12/08 01:55:28;;;;;;;0.95;0.50;;;;;;;7.39;95.21;98507.50;8330350;28;20124;-62
2021/12/08 01:59:28;;;;;;;1.60;0.45;;;;;;;7.37;95.57;98509.50;8329835;28;20493;-62
2021/12/08 02:03:30;;;;;;;1.30;0.60;;;;;;;7.31;95.58;98510.16;8357349;28;20044;-62
2021/12/08 02:07:31;;;;;;;0.70;0.45;;;;;;;7.38;95.99;98516.53;8362537;28;20033;-62
2021/12/08 02:11:31;;;;;;;1.48;0.57;;;;;;;7.31;96.50;98496.72;8357925;28;20115;-62
2021/12/08 02:15:34;;;;;;;0.95;0.47;;;;;;;7.26;97.41;98509.00;8346120;28;20025;-62
2021/12/08 02:19:34;;;;;;;2.63;0.73;;;;;;;7.24;97.20;98509.19;8329062;28;20048;-62
2021/12/08 02:23:35;;;;;;;1.15;0.57;;;;;;;7.30;97.27;98503.13;8329163;28;20037;-62
2021/12/08 02:27:35;;;;;;;1.20;0.60;;;;;;;7.31;97.21;98504.78;8328849;28;20040;-62
2021/12/08 02:31:46;;;;;;;1.65;0.52;;;;;;;7.32;97.91;98511.03;8340053;28;20124;-62
2021/12/08 02:48:51;;;;;;;0.85;0.70;;;;;;;7.46;98.18;98513.84;8360303;28;20033;-63
2021/12/08 02:52:54;;;;;;;1.27;0.60;;;;;;;7.52;98.21;98512.31;8354868;28;20052;-63
2021/12/08 02:56:54;;;;;;;1.58;0.60;;;;;;;7.63;98.13;98528.94;8345532;28;20543;-63
2021/12/08 03:00:59;;;;;;;1.20;0.60;;;;;;;7.79;97.40;98515.47;8346383;28;20413;-63
2021/12/08 03:04:59;;;;;;;;;;;;;;;8.00;96.12;98520.28;8360524;28;20127;-63
2021/12/08 03:09:00;;;;;;;1.57;0.50;;;;;;;8.01;96.03;98530.88;8360096;28;19959;-63
2021/12/08 03:13:01;;;;;;;1.15;0.57;;;;;;;7.99;96.35;98522.13;8359995;28;20036;-63
2021/12/08 03:17:06;;;;;;;1.23;0.68;;;;;;;8.16;95.53;98512.16;8359814;28;20061;-63
2021/12/08 03:21:09;;;;;;;1.40;0.70;;;;;;;8.38;94.42;98521.34;8360586;28;20108;-63
2021/12/08 03:25:13;;;;;;;0.95;0.50;;;;;;;8.41;94.31;98526.34;8360638;28;20052;-63
2021/12/08 03:29:23;;;;;;;1.60;0.77;;;;;;;8.38;94.60;98537.50;8360208;28;20090;-63
2021/12/08 03:33:24;;;;;;;1.02;0.50;;;;;;;8.24;94.89;98530.16;8359783;28;20025;-63
2021/12/08 03:37:29;;;;;;;3.63;1.33;;;;;;;8.09;95.84;98544.28;8359451;28;20094;-63
2021/12/08 03:41:33;;;;;;;1.58;0.90;;;;;;;8.02;96.72;98548.69;8360649;28;20037;-63
2021/12/08 03:45:38;;;;;;;2.97;1.10;;;;;;;7.94;96.95;98555.94;8338282;28;20035;-63
2021/12/08 03:49:38;;;;;;;2.50;1.15;;;;;;;7.81;97.73;98561.03;8359398;28;20228;-63
2021/12/08 03:53:39;;;;;;;2.33;1.40;;;;;;;7.72;98.72;98562.88;8359402;28;20116;-63
2021/12/08 03:57:41;;;;;;;5.38;1.17;;;;;;;7.76;98.97;98563.38;8357967;28;20292;-63
2021/12/08 04:01:41;;;;;;;3.25;1.23;;;;;;;7.69;99.29;98568.59;8346748;28;20517;-63
2021/12/08 04:05:56;;;;;;;4.88;1.50;;;;;;;7.81;100.00;98567.22;8327053;28;20504;-63
2021/12/08 04:09:56;;;;;;;;;;;;;;;7.87;100.00;98571.09;8329631;28;20048;-63
2021/12/08 04:14:04;;;;;;;3.70;1.30;;;;;;;7.84;100.00;98569.56;8346265;28;19920;-64
2021/12/08 04:18:05;;;;;;;5.10;1.08;;;;;;;7.91;100.00;98575.13;8358497;28;20040;-63
2021/12/08 04:22:32;;;;;;;5.70;1.40;;;;;;;7.88;100.00;98579.00;8358219;28;20037;-63
2021/12/08 04:26:39;;;;;;;11.60;2.22;;;;;;;7.88;100.00;98576.31;8358889;28;20029;-63
2021/12/08 04:30:51;;;;;;;5.93;1.55;;;;;;;7.82;100.00;98579.69;8351945;28;20040;-63
2021/12/08 04:34:54;;;;;;;5.85;1.75;;;;;;;7.86;100.00;98585.53;8345428;28;20120;-63
2021/12/08 04:38:58;;;;;;;5.77;1.30;;;;;;;7.98;100.00;98574.28;8325727;28;20042;-63
2021/12/08 04:43:33;;;;;;;4.43;0.97;;;;;;;8.01;100.00;98573.94;8325528;28;20275;-63
2021/12/08 04:47:34;;;;;;;5.35;1.42;;;;;;;8.02;99.95;98590.88;8332158;28;20061;-63
2021/12/08 05:00:47;;;;;;;5.28;1.10;;;;;;;7.57;100.00;98606.75;8336121;28;20444;-63
2021/12/08 05:05:01;;;;;;;4.53;1.20;;;;;;;7.29;100.00;98608.91;8345787;28;20622;-63
2021/12/08 05:09:06;;;;;;;9.65;1.63;;;;;;;7.19;100.00;98602.88;8331382;28;20030;-63
2021/12/08 05:13:10;;;;;;;5.78;1.27;;;;;;;7.18;100.00;98590.47;8331299;28;20045;-63
2021/12/08 05:17:17;;;;;;;5.22;1.15;;;;;;;7.10;100.00;98603.88;8348447;28;20265;-63
2021/12/08 05:21:26;;;;;;;5.75;1.13;;;;;;;7.09;100.00;98617.47;8358990;28;20511;-63
2021/12/08 05:25:30;;;;;;;6.25;1.48;;;;;;;6.94;100.00;98614.59;8341105;28;20060;-63
2021/12/08 05:29:43;;;;;;;4.03;1.50;;;;;;;6.73;100.00;98616.88;8345230;28;20064;-63
2021/12/08 05:33:45;;;;;;;9.05;1.52;;;;;;;6.68;100.00;98624.56;8356183;28;20036;-63
2021/12/08 05:37:46;;;;;;;5.22;1.48;;;;;;;6.51;100.00;98614.78;8360737;28;20512;-63
2021/12/08 05:41:53;;;;;;;8.73;2.08;;;;;;;6.64;100.00;98612.47;8359776;28;20086;-63
2021/12/08 05:45:55;;;;;;;6.20;1.52;;;;;;;6.66;100.00;98610.47;8354116;28;20038;-63
2021/12/08 05:49:57;;;;;;;7.63;1.10;;;;;;;6.44;100.00;98621.81;8342414;28;20029;-63
2021/12/08 05:54:05;;;;;;;7.25;1.35;;;;;;;6.18;100.00;98642.44;8359966;28;20728;-63
2021/12/08 05:58:08;;;;;;;4.68;1.48;;;;;;;6.00;100.00;98644.34;8379895;28;20068;-63
2021/12/08 06:02:14;;;;;;;5.45;1.90;;;;;;;6.12;100.00;98636.88;8355393;28;20076;-63
2021/12/08 06:06:16;;;;;;;6.80;1.40;;;;;;;5.87;100.00;98636.75;8349386;28;20378;-63
2021/12/08 06:10:23;;;;;;;12.98;1.98;;;;;;;6.27;100.00;98630.75;8334691;28;20420;-63
2021/12/08 06:14:32;;;;;;;6.55;2.17;;;;;;;6.37;100.00;98639.53;8342712;28;20065;-63
2021/12/08 06:18:39;;;;;;;9.80;1.95;;;;;;;6.04;100.00;98657.28;8333476;28;20037;-63
2021/12/08 06:22:41;;;;;;;7.20;1.85;;;;;;;6.04;100.00;98659.16;8340657;28;20096;-63
2021/12/08 06:26:42;;;;;;;8.10;1.77;;;;;;;6.02;100.00;98669.19;8358471;28;20420;-63
2021/12/08 06:30:45;;;;;;;8.55;1.33;;;;;;;6.44;100.00;98671.94;8344758;28;20033;-63
2021/12/08 06:34:50;;;;;;;6.30;1.10;;;;;;;6.92;96.46;98681.03;8323872;28;20401;-63
2021/12/08 06:38:52;;;;;;;4.40;1.48;;;;;;;6.89;95.32;98675.19;8328177;28;20057;-62
2021/12/08 06:42:55;;;;;;;5.10;1.27;;;;;;;7.03;93.85;98678.06;8329429;28;20437;-63
2021/12/08 06:46:57;;;;;;;4.28;1.00;;;;;;;7.01;93.64;98671.16;8331046;28;20375;-62
2021/12/08 06:51:06;;;;;;;5.45;1.10;;;;;;;7.06;92.31;98667.00;8330372;28;20064;-63
2021/12/08 06:55:13;;;;;;;9.55;2.35;;;;;;;6.86;93.05;98665.56;8329859;28;20128;-63
2021/12/08 06:59:21;;;;;;;10.80;2.38;;;;;;;6.75;94.69;98673.09;8330729;28;20039;-62
2021/12/08 07:03:42;;;;;;;6.03;1.27;;;;;;;6.64;94.81;98676.91;8356465;28;20173;-62
2021/12/08 07:07:44;;;;;;;8.98;1.70;;;;;;;6.46;96.14;98673.47;8362979;28;20036;-62
2021/12/08 07:11:45;;;;;;;5.47;1.20;;;;;;;6.52;95.71;98677.38;8362525;28;20325;-62
2021/12/08 07:15:51;;;;;;;7.95;2.00;;;;;;;6.55;95.39;98683.25;8362067;28;20040;-63
2021/12/08 07:20:13;;;;;;;13.05;2.50;;;;;;;6.41;95.42;98686.53;8362069;28;20033;-63
2021/12/08 07:24:19;;;;;;;7.18;1.58;;;;;;;6.38;95.37;98683.31;8362075;28;20028;-62
2021/12/08 07:28:23;;;;;;;6.93;2.25;;;;;;;6.40;95.39;98684.00;8360262;28;20033;-63
2021/12/08 07:32:28;;;;;;;12.33;2.20;;;;;;;6.41;95.08;98677.63;8341606;28;20044;-63
2021/12/08 07:36:30;;;;;;;7.45;1.60;;;;;;;6.34;95.06;98674.72;8326755;28;20406;-63
2021/12/08 07:40:40;;;;;;;12.00;1.88;;;;;;;6.36;94.83;98691.53;8326918;28;20244;-63
2021/12/08 07:44:40;;;;;;;6.00;1.85;;;;;;;6.30;95.56;98699.34;8326321;28;20037;-63
2021/12/08 07:48:47;;;;;;;8.05;1.42;;;;;;;6.24;95.18;98711.56;8326248;28;20072;-63
2021/12/08 07:52:50;;;;;;;6.85;1.00;;;;;;;6.12;95.83;98702.09;8325944;28;20030;-63
2021/12/08 07:56:54;;;;;;;10.40;1.42;;;;;;;5.93;96.89;98707.66;8326371;28;20539;-63
2021/12/08 08:00:57;;;;;;;;;;;;;;;5.93;97.29;98710.34;8328909;28;20094;-63
2021/12/08 08:05:01;;;;;;;8.05;1.83;;;;;;;5.89;97.61;98700.94;8359266;28;20039;-63
2021/12/08 08:09:22;;;;;;;8.95;1.85;;;;;;;5.93;97.63;98708.50;8357591;28;20033;-63
2021/12/08 08:13:24;;;;;;;9.18;1.73;;;;;;;6.10;96.95;98714.00;8358303;28;20041;-63
2021/12/08 08:17:33;;;;;;;12.38;2.35;;;;;;;6.17;96.89;98728.44;8357690;28;20527;-63
2021/12/08 08:21:38;;;;;;;13.45;2.30;;;;;;;6.03;97.51;98729.03;8358561;28;20021;-63
2021/12/08 08:25:41;;;;;;;8.20;1.40;;;;;;;6.03;97.86;98741.44;8358637;28;20029;-63
2021/12/08 08:29:41;;;;;;;7.68;1.58;;;;;;;6.15;97.62;98739.34;8357975;28;20098;-63
2021/12/08 08:33:43;;;;;;;7.43;1.70;;;;;;;6.14;97.47;98743.03;8360215;28;20029;-63
2021/12/08 08:37:44;;;;;;;11.73;1.58;;;;;;;6.15;97.13;98750.06;8363935;28;20033;-63
2021/12/08 08:42:00;;;;;;;7.82;1.52;;;;;;;6.13;98.08;98741.31;8365144;28;20110;-63
2021/12/08 08:46:10;;;;;;;6.82;1.77;;;;;;;6.23;97.06;98741.25;8363732;28;20033;-63
2021/12/08 08:50:16;;;;;;;9.82;1.75;;;;;;;6.34;96.15;98732.94;8363829;28;20116;-63
2021/12/08 08:54:21;;;;;;;7.43;2.53;;;;;;;6.32;96.58;98730.41;8339863;28;20046;-63
2021/12/08 08:58:24;;;;;;;12.00;2.00;;;;;;;6.35;96.56;98730.09;8329982;28;20393;-63
2021/12/08 09:02:30;;;;;;;12.75;2.90;;;;;;;6.30;96.75;98727.03;8341938;28;20492;-63
2021/12/08 09:06:36;;;;;;;8.50;1.73;;;;;;;6.28;97.74;98734.38;8362643;28;20033;-63
2021/12/08 09:15:00;;;;;;;8.75;2.10;;;;;;;6.34;98.55;98765.97;8416936;27;20476;-62
2021/12/08 09:19:10;;;;;;;15.88;3.22;;;;;;;6.35;99.23;98772.19;8418951;27;20550;-62
2021/12/08 09:23:22;;;;;;;8.90;2.33;;;;;;;6.34;99.25;98765.13;8422032;27;20047;-62
2021/12/08 09:27:35;;;;;;;18.75;7.28;;;;;;;6.43;99.11;98770.38;8385893;28;20097;-62
2021/12/08 09:31:40;;;;;;;21.13;6.95;;;;;;;6.58;97.78;98784.91;8387862;28;20040;-62
2021/12/08 09:35:52;;;;;;;10.05;2.33;;;;;;;6.84;95.97;98799.19;8387990;28;20492;-62
2021/12/08 09:40:07;;;;;;;8.88;1.95;;;;;;;6.97;95.67;98791.53;8417289;28;20399;-62
2021/12/08 09:44:13;;;;;;;7.80;2.17;;;;;;;7.16;94.95;98802.03;8420436;28;20447;-62
2021/12/08 09:48:14;;;;;;;12.80;1.58;;;;;;;7.31;92.65;98795.03;8421104;28;20067;-62
2021/12/08 09:52:18;;;;;;;5.63;1.48;;;;;;;7.42;92.21;98801.97;8421323;28;20151;-62
2021/12/08 09:56:20;;;;;;;8.60;1.60;;;;;;;7.62;89.88;98800.69;8420147;28;20052;-62
2021/12/08 10:00:29;;;;;;;7.43;1.60;;;;;;;7.67;90.10;98799.19;8421569;28;20489;-62
2021/12/08 10:04:29;;;;;;;8.60;1.35;;;;;;;7.68;90.01;98808.09;8421308;28;20401;-62
2021/12/08 10:08:30;;;;;;;5.97;1.10;;;;;;;7.72;88.97;98810.28;8421366;28;20119;-62
2021/12/08 10:12:33;;;;;;;8.45;1.30;;;;;;;7.95;86.64;98808.66;8419925;28;20036;-62
2021/12/08 10:16:35;;;;;;;10.23;2.08;;;;;;;8.00;86.30;98814.38;8419607;28;20275;-62
2021/12/08 10:20:47;;;;;;;6.53;1.38;;;;;;;8.15;83.50;98825.34;8421890;28;20036;-62
2021/12/08 10:25:10;;;;;;;8.23;1.30;;;;;;;8.16;86.14;98826.16;8406365;28;20095;-62
2021/12/08 10:29:10;;;;;;;7.22;1.48;;;;;;;8.05;88.10;98828.19;8398232;28;20040;-62
2021/12/08 10:33:48;;;;;;;9.50;1.40;;;;;;;8.06;87.57;98818.28;8397696;28;20028;-62
2021/12/08 10:37:59;;;;;;;7.15;1.13;;;;;;;8.21;86.42;98821.13;8397236;28;20040;-62
2021/12/08 10:42:13;;;;;;;6.28;0.93;;;;;;;8.29;84.74;98821.19;8398756;28;20037;-63
2021/12/08 10:46:13;;;;;;;;;;;;;;;8.39;83.74;98805.69;8398291;28;20511;-63
2021/12/08 10:54:45;;;;;;;6.43;1.25;;;;;;;8.38;84.79;98798.66;8398689;28;20098;-62
2021/12/08 10:58:50;;;;;;;5.18;0.93;;;;;;;8.37;85.08;98799.63;8398729;28;20064;-62
2021/12/08 11:02:56;;;;;;;6.13;1.30;;;;;;;8.35;83.95;98801.69;8397265;28;20033;-62
2021/12/08 11:07:06;;;;;;;5.80;1.23;;;;;;;8.43;84.45;98807.03;8388439;28;20342;-62
2021/12/08 11:11:22;;;;;;;5.43;1.50;;;;;;;8.51;82.49;98807.03;8398346;28;20033;-62
2021/12/08 11:15:25;;;;;;;5.65;1.55;;;;;;;8.61;81.25;98813.94;8398228;28;20078;-63
2021/12/08 11:19:25;;;;;;;6.55;1.25;;;;;;;8.63;83.12;98816.47;8398613;28;20040;-62
2021/12/08 11:23:47;;;;;;;8.63;1.67;;;;;;;8.66;83.43;98816.94;8397166;28;20040;-63
2021/12/08 11:27:47;;;;;;;3.30;0.90;;;;;;;8.70;82.39;98812.06;8397918;28;20028;-62
2021/12/08 11:31:53;;;;;;;7.45;1.08;;;;;;;8.93;82.14;98813.03;8397686;28;20044;-63
2021/12/08 11:36:15;;;;;;;9.95;1.40;;;;;;;9.02;79.39;98809.28;8397146;28;20334;-63
2021/12/08 11:40:16;;;;;;;12.65;1.63;;;;;;;9.14;79.44;98813.31;8398156;28;20086;-63
2021/12/08 11:44:20;;;;;;;9.05;1.10;;;;;;;9.14;79.20;98811.47;8399130;28;20040;-63
2021/12/08 11:48:23;;;;;;;9.95;1.23;;;;;;;9.03;79.99;98808.31;8398303;28;20033;-63
2021/12/08 11:52:29;;;;;;;5.40;1.20;;;;;;;9.16;78.57;98795.13;8397538;28;20032;-63
2021/12/08 11:56:34;;;;;;;4.85;1.55;;;;;;;9.10;79.04;98804.75;8399253;28;20044;-63
2021/12/08 12:00:38;;;;;;;4.82;1.20;;;;;;;9.16;78.45;98803.22;8399038;28;20079;-63
2021/12/08 12:04:38;;;;;;;5.88;0.90;;;;;;;9.19;77.95;98798.31;8398076;28;20059;-63
2021/12/08 12:08:38;;;;;;;7.80;1.05;;;;;;;9.15;77.87;98804.22;8398175;28;20036;-63
2021/12/08 12:12:41;;;;;;;10.52;1.25;;;;;;;9.29;77.20;98814.28;8397962;28;20085;-63
2021/12/08 12:16:42;;;;;;;9.00;1.15;;;;;;;9.40;75.24;98813.91;8397554;28;20059;-63
2021/12/08 12:20:46;;;;;;;12.40;1.40;;;;;;;9.41;75.48;98824.53;8398284;28;20089;-63
2021/12/08 12:25:22;;;;;;;9.38;0.93;;;;;;;9.53;74.67;98822.28;8398089;28;20040;-63
2021/12/08 12:29:46;;;;;;;5.88;1.08;;;;;;;9.55;74.57;98820.25;8363632;28;20037;-63
2021/12/08 12:33:49;;;;;;;3.45;0.70;;;;;;;9.47;74.04;98809.50;8362498;28;20106;-63
2021/12/08 12:38:01;;;;;;;5.95;1.38;;;;;;;9.37;73.93;98811.56;8363733;28;20036;-63
2021/12/08 12:42:13;;;;;;;8.45;0.95;;;;;;;9.40;73.94;98822.00;8362720;28;20029;-63
2021/12/08 12:46:15;;;;;;;7.93;1.05;;;;;;;9.28;73.93;98839.56;8362126;28;20032;-63
2021/12/08 12:50:22;;;;;;;3.05;0.90;;;;;;;9.50;73.68;98836.09;8363469;28;20037;-63
2021/12/08 12:54:24;;;;;;;3.83;0.80;;;;;;;9.46;73.26;98818.59;8363017;28;20033;-63
2021/12/08 12:58:39;;;;;;;9.73;1.50;;;;;;;9.40;73.92;98838.19;8361880;28;20722;-63
2021/12/08 13:02:47;;;;;;;5.97;1.02;;;;;;;9.42;74.15;98838.81;8338662;28;20124;-63
2021/12/08 13:07:06;;;;;;;3.92;1.00;;;;;;;9.34;74.28;98844.25;8327239;28;20040;-63
2021/12/08 13:15:34;;;;;;;6.88;1.38;;;;;;;9.34;73.98;98847.78;8409338;27;20495;-63
2021/12/08 13:19:44;;;;;;;4.25;1.30;;;;;;;9.36;73.55;98853.00;8405853;27;20490;-63
2021/12/08 13:23:44;;;;;;;6.18;1.20;;;;;;;9.41;73.00;98840.69;8401187;27;20037;-63
2021/12/08 13:27:52;;;;;;;5.93;2.00;;;;;;;9.45;73.86;98851.97;8402582;27;20044;-63
2021/12/08 13:32:00;;;;;;;10.77;2.47;;;;;;;9.48;74.15;98868.66;8364851;28;20072;-63
2021/12/08 13:36:25;;;;;;;7.82;2.13;;;;;;;9.48;75.20;98873.19;8364617;28;20045;-63
2021/12/08 13:40:44;;;;;;;3.47;1.10;;;;;;;9.40;75.73;98870.53;8353226;28;20041;-63
2021/12/08 13:45:03;;;;;;;9.45;1.00;;;;;;;9.30;75.76;98876.13;8353643;28;20048;-63
2021/12/08 13:49:27;;;;;;;4.00;0.65;;;;;;;9.22;76.50;98878.84;8353114;28;20103;-63
2021/12/08 13:53:27;;;;;;;5.30;1.42;;;;;;;9.17;76.78;98874.97;8353011;28;20520;-63
2021/12/08 13:57:46;;;;;;;8.32;1.63;;;;;;;9.18;77.11;98872.09;8352911;28;20399;-63
2021/12/08 14:01:46;;;;;;;9.02;1.13;;;;;;;9.22;76.45;98880.69;8352488;28;20033;-63
2021/12/08 14:06:03;;;;;;;6.47;1.95;;;;;;;9.22;76.52;98888.78;8337349;28;20072;-63
2021/12/08 14:10:08;;;;;;;6.93;1.02;;;;;;;9.19;76.18;98886.44;8351891;28;20090;-63
2021/12/08 14:14:08;;;;;;;6.28;1.13;;;;;;;9.12;74.97;98891.66;8352879;28;20492;-63
2021/12/08 14:22:42;;;;;;;4.95;1.10;;;;;;;9.03;75.32;98881.91;8413941;27;20468;-62
2021/12/08 14:26:48;;;;;;;4.40;0.90;;;;;;;9.04;74.61;98880.06;8406476;28;20064;-63
2021/12/08 14:30:49;;;;;;;3.78;0.80;;;;;;;8.96;73.52;98893.53;8403143;28;20036;-63
2021/12/08 14:34:50;;;;;;;5.18;1.20;;;;;;;8.97;73.28;98887.16;8403155;27;20085;-63
2021/12/08 14:38:53;;;;;;;8.20;1.15;;;;;;;8.91;73.50;98883.25;8403358;27;20518;-63
2021/12/08 14:42:54;;;;;;;2.45;0.70;;;;;;;8.89;73.80;98897.91;8391937;27;20048;-63
2021/12/08 14:47:00;;;;;;;5.57;1.40;;;;;;;8.82;73.93;98896.94;8403799;27;20128;-63
2021/12/08 14:51:01;;;;;;;5.03;0.70;;;;;;;8.70;73.94;98904.50;8402599;27;20412;-63
2021/12/08 14:55:04;;;;;;;6.57;0.93;;;;;;;8.57;74.50;98887.97;8402847;27;20059;-63
2021/12/08 14:59:06;;;;;;;7.30;1.05;;;;;;;8.53;74.00;98892.03;8401788;27;20032;-63
2021/12/08 15:03:11;;;;;;;9.88;0.88;;;;;;;8.38;74.70;98876.72;8382286;27;20408;-63
2021/12/08 15:07:12;;;;;;;7.05;1.13;;;;;;;8.27;75.67;98887.81;8375614;27;20046;-63
2021/12/08 15:11:22;;;;;;;3.20;0.80;;;;;;;8.15;76.08;98891.78;8381031;27;20520;-63
2021/12/08 15:15:25;;;;;;;5.40;0.95;;;;;;;8.06;76.44;98899.81;8368543;27;20047;-63
2021/12/08 15:19:25;;;;;;;6.65;1.08;;;;;;;7.92;77.26;98894.25;8383761;28;20047;-63
2021/12/08 15:23:39;;;;;;;5.53;2.33;;;;;;;7.87;76.71;98905.50;8382876;28;20373;-63
2021/12/08 15:27:43;;;;;;;2.67;0.52;;;;;;;7.74;77.01;98899.72;8375823;28;20049;-63
2021/12/08 15:31:50;;;;;;;5.63;2.05;;;;;;;7.46;78.74;98909.03;8361270;28;20110;-63
2021/12/08 15:35:53;;;;;;;7.45;2.50;;;;;;;7.23;80.28;98921.31;8334185;28;20108;-63
2021/12/08 15:39:56;;;;;;;6.13;2.60;;;;;;;7.15;80.71;98928.47;8326162;28;20041;-63
2021/12/08 15:44:14;;;;;;;14.05;4.00;;;;;;;7.06;80.46;98924.06;8328257;28;20042;-63
2021/12/08 15:48:18;;;;;;;11.63;3.75;;;;;;;7.07;80.44;98942.69;8329381;28;20037;-63
2021/12/08 15:52:23;;;;;;;7.13;1.87;;;;;;;7.08;80.20;98932.81;8328799;28;20284;-63
2021/12/08 15:56:24;;;;;;;10.20;2.10;;;;;;;6.83;81.58;98937.13;8315170;28;20345;-63
2021/12/08 16:00:50;;;;;;;7.07;2.05;;;;;;;6.73;82.17;98951.66;8327086;28;20064;-63
2021/12/08 16:04:54;;;;;;;9.43;2.67;;;;;;;6.68;82.47;98954.78;8353008;28;20386;-63
2021/12/08 16:09:13;;;;;;;8.30;2.38;;;;;;;6.52;84.59;98962.72;8336978;28;20053;-63
2021/12/08 16:13:18;;;;;;;13.30;3.20;;;;;;;6.39;85.28;98967.63;8349640;28;20492;-63
2021/12/08 16:17:26;;;;;;;8.98;2.88;;;;;;;6.36;85.63;98961.69;8344703;28;20521;-63
2021/12/08 16:21:26;;;;;;;11.73;1.83;;;;;;;6.33;85.55;98970.91;8335709;28;20059;-63
2021/12/08 16:25:27;;;;;;;8.45;2.25;;;;;;;6.06;87.12;98976.28;8340747;28;20045;-63
2021/12/08 16:29:31;;;;;;;11.18;2.63;;;;;;;5.80;89.22;98975.28;8354321;28;20057;-63
2021/12/08 16:33:31;;;;;;;6.13;3.03;;;;;;;5.65;88.98;98982.13;8337666;28;20029;-62
2021/12/08 16:37:32;;;;;;;6.22;2.20;;;;;;;5.56;90.05;98993.72;8332026;28;20043;-63
2021/12/08 16:45:56;;;;;;;7.47;2.45;;;;;;;4.87;92.27;99000.34;8324802;28;20380;-63
2021/12/08 16:49:56;;;;;;;4.82;2.35;;;;;;;5.01;92.03;99007.94;8350727;28;20040;-63
2021/12/08 16:53:57;;;;;;;5.88;2.15;;;;;;;4.97;92.42;99009.22;8343449;28;20128;-63
2021/12/08 16:58:01;;;;;;;10.75;2.58;;;;;;;4.85;93.18;99015.72;8323727;28;20384;-64
2021/12/08 17:02:02;;;;;;;;;;;;;;;4.91;93.16;99007.13;8321803;28;20148;-64
2021/12/08 17:06:06;;;;;;;11.00;2.65;;;;;;;4.82;93.18;99014.16;8320460;28;19928;-63
2021/12/08 17:14:22;;;;;;;8.50;2.72;;;;;;;5.34;91.20;99019.03;8066491;26;19925;-65
2021/12/08 17:18:22;;;;;;;14.95;5.22;;;;;;;5.38;90.27;99019.59;8326699;28;20457;-64
2021/12/08 17:22:23;;;;;;;11.30;5.15;;;;;;;5.34;89.83;99031.59;8343391;28;20044;-64
2021/12/08 17:26:23;;;;;;;10.10;4.55;;;;;;;5.24;90.75;99030.75;8345643;28;20033;-65
2021/12/08 17:30:24;;;;;;;11.23;3.83;;;;;;;4.68;92.09;99027.13;8336004;28;20444;-65
2021/12/08 17:34:25;;;;;;;11.70;3.00;;;;;;;4.69;92.75;99034.16;8345727;28;20127;-64
2021/12/08 17:38:27;;;;;;;8.23;3.38;;;;;;;4.73;92.55;99046.28;8346019;28;20129;-65
2021/12/08 17:42:27;;;;;;;9.48;4.03;;;;;;;4.89;92.67;99049.25;8345196;28;20065;-65
2021/12/08 17:46:30;;;;;;;7.55;3.70;;;;;;;4.30;93.50;99053.84;8345706;28;20033;-65
2021/12/08 17:50:30;;;;;;;13.15;3.97;;;;;;;4.14;96.07;99054.34;8340988;28;20061;-64
2021/12/08 17:54:31;;;;;;;9.48;4.22;;;;;;;4.24;96.07;99070.41;8336062;28;20033;-65
2021/12/08 17:58:31;;;;;;;12.27;3.42;;;;;;;4.39;95.91;99061.84;8342956;28;20473;-64
2021/12/08 18:02:32;;;;;;;12.15;2.90;;;;;;;4.61;95.21;99058.09;8342855;28;20044;-64
2021/12/08 18:06:33;;;;;;;11.98;3.28;;;;;;;4.63;94.57;99062.31;8330143;28;20048;-64
2021/12/08 18:10:35;;;;;;;8.07;3.28;;;;;;;4.70;94.61;99051.91;8344003;28;20040;-64
2021/12/08 18:14:37;;;;;;;8.30;2.97;;;;;;;4.83;94.24;99055.16;8336831;28;20150;-65
2021/12/08 18:18:37;;;;;;;7.60;3.63;;;;;;;4.82;94.11;99058.84;8321765;28;20034;-65
2021/12/08 18:22:38;;;;;;;10.35;4.47;;;;;;;4.79;93.88;99056.44;8330566;28;20073;-65
2021/12/08 18:26:39;;;;;;;7.95;4.18;;;;;;;4.75;93.31;99057.69;8320557;28;20361;-65
2021/12/08 18:30:43;;;;;;;9.10;4.68;;;;;;;4.66;93.14;99066.56;8309200;28;20037;-65
2021/12/08 18:34:43;;;;;;;10.98;4.07;;;;;;;4.54;94.16;99070.34;8300005;28;20309;-64
2021/12/08 18:38:45;;;;;;;23.02;3.25;;;;;;;4.18;95.53;99077.16;8306223;28;20033;-65
2021/12/08 18:42:45;;;;;;;9.88;3.72;;;;;;;4.15;96.57;99085.47;8309277;28;20029;-65
2021/12/08 18:46:46;;;;;;;8.60;3.97;;;;;;;4.30;96.09;99091.28;8311936;28;20099;-64
2021/12/08 18:50:47;;;;;;;21.08;7.25;;;;;;;4.42;96.11;99090.19;8344206;28;20033;-65
2021/12/08 18:54:47;;;;;;;9.48;4.40;;;;;;;4.59;94.60;99092.19;8345500;28;20086;-64
2021/12/08 18:58:49;;;;;;;10.95;3.75;;;;;;;4.75;94.42;99089.81;8346851;28;20170;-65
2021/12/08 19:02:49;;;;;;;6.78;3.95;;;;;;;4.94;93.67;99100.56;8346095;28;20048;-65
2021/12/08 19:06:50;;;;;;;7.75;4.07;;;;;;;5.05;92.74;99105.75;8346304;28;20059;-65
2021/12/08 19:10:53;;;;;;;8.30;3.95;;;;;;;5.04;93.15;99104.94;8343975;28;20045;-65
2021/12/08 19:14:53;;;;;;;12.02;4.20;;;;;;;5.10;92.70;99095.47;8330210;28;20115;-65
2021/12/08 19:18:57;;;;;;;12.45;5.88;;;;;;;5.30;92.32;99099.81;8347051;28;20377;-65
2021/12/08 19:23:00;;;;;;;9.82;3.83;;;;;;;5.44;91.10;99097.56;8338045;28;20037;-65
2021/12/08 19:27:01;;;;;;;9.68;3.20;;;;;;;5.47;91.29;99101.78;8343738;28;20033;-65
2021/12/08 19:31:03;;;;;;;6.43;3.13;;;;;;;5.40;91.08;99087.28;8350610;28;20513;-65
2021/12/08 19:35:06;;;;;;;11.85;4.07;;;;;;;5.39;91.90;99107.88;8346171;28;20037;-65
2021/12/08 19:39:08;;;;;;;14.43;4.38;;;;;;;5.37;91.89;99109.00;8352125;28;20049;-65
2021/12/08 19:43:09;;;;;;;8.93;3.40;;;;;;;5.29;92.05;99124.94;8349132;28;20055;-65
2021/12/08 19:47:09;;;;;;;8.98;3.60;;;;;;;5.13;92.16;99116.63;8351682;28;20028;-64
2021/12/08 19:51:10;;;;;;;14.95;4.10;;;;;;;4.97;92.38;99125.19;8351827;28;20128;-65
2021/12/08 19:55:10;;;;;;;10.40;3.95;;;;;;;4.88;93.14;99130.56;8342329;28;20045;-65
2021/12/08 19:59:12;;;;;;;10.95;3.45;;;;;;;4.81;94.10;99134.75;8343244;28;20045;-65
2021/12/08 20:03:14;;;;;;;13.85;4.18;;;;;;;4.80;94.08;99128.56;8351301;28;20041;-65
2021/12/08 20:07:14;;;;;;;9.93;3.58;;;;;;;4.84;93.35;99140.69;8343676;28;20138;-65
2021/12/08 20:11:18;;;;;;;11.23;4.60;;;;;;;4.92;92.41;99154.25;8349970;28;20041;-64
2021/12/08 20:15:21;;;;;;;11.48;4.75;;;;;;;4.35;94.70;99161.25;8351072;28;20150;-65
2021/12/08 20:19:22;;;;;;;10.30;4.95;;;;;;;3.97;97.22;99167.28;8350338;28;20432;-65